sensor_id;sensor_type;location;lat;lon;timestamp;P1;durP1;ratioP1;P2;durP2;ratioP2
43996;SDS011;34318;45.818;15.964;2023-12-04T00:02:07;12.88;;;7.75;;
43996;SDS011;34318;45.818;15.964;2023-12-04T00:04:35;8.40;;;7.13;;
43996;SDS011;34318;45.818;15.964;2023-12-04T00:07:02;7.63;;;6.90;;
43996;SDS011;34318;45.818;15.964;2023-12-04T00:09:29;8.60;;;6.90;;
43996;SDS011;34318;45.818;15.964;2023-12-04T00:11:57;7.95;;;6.90;;
43996;SDS011;34318;45.818;15.964;2023-12-04T00:14:24;7.70;;;6.90;;
43996;SDS011;34318;45.818;15.964;2023-12-04T00:16:51;8.45;;;7.38;;
43996;SDS011;34318;45.818;15.964;2023-12-04T00:19:19;8.13;;;7.32;;
43996;SDS011;34318;45.818;15.964;2023-12-04T00:21:46;10.48;;;7.57;;
43996;SDS011;34318;45.818;15.964;2023-12-04T00:24:13;7.65;;;6.40;;
43996;SDS011;34318;45.818;15.964;2023-12-04T00:26:41;8.68;;;6.90;;
43996;SDS011;34318;45.818;15.964;2023-12-04T00:29:08;7.60;;;6.75;;
43996;SDS011;34318;45.818;15.964;2023-12-04T00:31:35;7.57;;;6.45;;
43996;SDS011;34318;45.818;15.964;2023-12-04T00:34:02;6.85;;;6.18;;
43996;SDS011;34318;45.818;15.964;2023-12-04T00:36:30;6.95;;;6.25;;
43996;SDS011;34318;45.818;15.964;2023-12-04T00:38:57;7.88;;;7.03;;
43996;SDS011;34318;45.818;15.964;2023-12-04T00:41:24;6.80;;;6.10;;
43996;SDS011;34318;45.818;15.964;2023-12-04T00:43:52;7.30;;;6.47;;
43996;SDS011;34318;45.818;15.964;2023-12-04T00:46:19;6.95;;;6.07;;
43996;SDS011;34318;45.818;15.964;2023-12-04T00:48:47;7.55;;;6.75;;
43996;SDS011;34318;45.818;15.964;2023-12-04T00:51:14;7.07;;;6.32;;
43996;SDS011;34318;45.818;15.964;2023-12-04T00:53:41;6.43;;;5.82;;
43996;SDS011;34318;45.818;15.964;2023-12-04T00:56:09;6.95;;;6.28;;
43996;SDS011;34318;45.818;15.964;2023-12-04T00:58:36;7.32;;;6.63;;
43996;SDS011;34318;45.818;15.964;2023-12-04T01:01:04;11.52;;;6.72;;
43996;SDS011;34318;45.818;15.964;2023-12-04T01:03:31;9.50;;;6.28;;
43996;SDS011;34318;45.818;15.964;2023-12-04T01:06:00;7.97;;;5.55;;
43996;SDS011;34318;45.818;15.964;2023-12-04T01:08:27;6.35;;;5.47;;
43996;SDS011;34318;45.818;15.964;2023-12-04T01:10:55;6.90;;;5.97;;
43996;SDS011;34318;45.818;15.964;2023-12-04T01:13:22;6.47;;;5.88;;
43996;SDS011;34318;45.818;15.964;2023-12-04T01:15:49;7.10;;;5.95;;
43996;SDS011;34318;45.818;15.964;2023-12-04T01:18:17;6.88;;;5.85;;
43996;SDS011;34318;45.818;15.964;2023-12-04T01:20:44;6.40;;;5.68;;
43996;SDS011;34318;45.818;15.964;2023-12-04T01:23:12;7.22;;;5.38;;
43996;SDS011;34318;45.818;15.964;2023-12-04T01:25:39;5.57;;;5.07;;
43996;SDS011;34318;45.818;15.964;2023-12-04T01:28:06;6.50;;;5.80;;
43996;SDS011;34318;45.818;15.964;2023-12-04T01:30:33;6.65;;;5.97;;
43996;SDS011;34318;45.818;15.964;2023-12-04T01:33:01;7.13;;;5.97;;
43996;SDS011;34318;45.818;15.964;2023-12-04T01:35:28;6.40;;;5.80;;
43996;SDS011;34318;45.818;15.964;2023-12-04T01:37:55;6.75;;;6.05;;
43996;SDS011;34318;45.818;15.964;2023-12-04T01:40:23;6.43;;;5.78;;
43996;SDS011;34318;45.818;15.964;2023-12-04T01:42:50;9.20;;;5.47;;
43996;SDS011;34318;45.818;15.964;2023-12-04T01:45:17;7.03;;;5.75;;
43996;SDS011;34318;45.818;15.964;2023-12-04T01:47:45;6.43;;;5.85;;
43996;SDS011;34318;45.818;15.964;2023-12-04T01:50:13;8.32;;;6.32;;
43996;SDS011;34318;45.818;15.964;2023-12-04T01:52:41;7.22;;;6.30;;
43996;SDS011;34318;45.818;15.964;2023-12-04T01:55:09;7.32;;;6.13;;
43996;SDS011;34318;45.818;15.964;2023-12-04T01:57:37;6.35;;;5.75;;
43996;SDS011;34318;45.818;15.964;2023-12-04T02:00:05;6.07;;;5.35;;
43996;SDS011;34318;45.818;15.964;2023-12-04T02:02:38;6.63;;;5.32;;
43996;SDS011;34318;45.818;15.964;2023-12-04T02:05:07;8.35;;;5.90;;
43996;SDS011;34318;45.818;15.964;2023-12-04T02:07:34;7.18;;;5.75;;
43996;SDS011;34318;45.818;15.964;2023-12-04T02:10:03;7.05;;;5.97;;
43996;SDS011;34318;45.818;15.964;2023-12-04T02:12:31;6.20;;;5.60;;
43996;SDS011;34318;45.818;15.964;2023-12-04T02:14:58;6.20;;;5.63;;
43996;SDS011;34318;45.818;15.964;2023-12-04T02:17:26;5.93;;;5.32;;
43996;SDS011;34318;45.818;15.964;2023-12-04T02:19:53;6.05;;;5.45;;
43996;SDS011;34318;45.818;15.964;2023-12-04T02:22:21;5.97;;;5.40;;
43996;SDS011;34318;45.818;15.964;2023-12-04T02:24:48;6.63;;;5.70;;
43996;SDS011;34318;45.818;15.964;2023-12-04T02:27:16;6.70;;;5.85;;
43996;SDS011;34318;45.818;15.964;2023-12-04T02:29:51;5.75;;;5.10;;
43996;SDS011;34318;45.818;15.964;2023-12-04T02:32:19;5.80;;;5.23;;
43996;SDS011;34318;45.818;15.964;2023-12-04T02:34:48;6.00;;;5.00;;
43996;SDS011;34318;45.818;15.964;2023-12-04T02:37:16;5.50;;;5.00;;
43996;SDS011;34318;45.818;15.964;2023-12-04T02:39:44;6.30;;;5.70;;
43996;SDS011;34318;45.818;15.964;2023-12-04T02:42:12;6.10;;;5.13;;
43996;SDS011;34318;45.818;15.964;2023-12-04T02:44:40;5.80;;;5.20;;
43996;SDS011;34318;45.818;15.964;2023-12-04T02:47:07;5.95;;;5.35;;
43996;SDS011;34318;45.818;15.964;2023-12-04T02:49:34;5.45;;;4.95;;
43996;SDS011;34318;45.818;15.964;2023-12-04T02:52:01;5.63;;;5.03;;
43996;SDS011;34318;45.818;15.964;2023-12-04T02:54:29;6.88;;;5.78;;
43996;SDS011;34318;45.818;15.964;2023-12-04T02:56:56;5.68;;;5.18;;
43996;SDS011;34318;45.818;15.964;2023-12-04T02:59:24;5.40;;;4.90;;
43996;SDS011;34318;45.818;15.964;2023-12-04T03:01:51;5.22;;;4.75;;
43996;SDS011;34318;45.818;15.964;2023-12-04T03:04:19;5.20;;;4.70;;
43996;SDS011;34318;45.818;15.964;2023-12-04T03:06:47;5.57;;;5.07;;
43996;SDS011;34318;45.818;15.964;2023-12-04T03:09:14;5.95;;;5.38;;
43996;SDS011;34318;45.818;15.964;2023-12-04T03:11:43;5.50;;;4.80;;
43996;SDS011;34318;45.818;15.964;2023-12-04T03:14:10;5.28;;;4.78;;
43996;SDS011;34318;45.818;15.964;2023-12-04T03:16:37;5.72;;;5.13;;
43996;SDS011;34318;45.818;15.964;2023-12-04T03:19:04;5.40;;;4.90;;
43996;SDS011;34318;45.818;15.964;2023-12-04T03:21:32;6.03;;;5.50;;
43996;SDS011;34318;45.818;15.964;2023-12-04T03:23:59;5.97;;;5.07;;
43996;SDS011;34318;45.818;15.964;2023-12-04T03:26:27;5.20;;;4.70;;
43996;SDS011;34318;45.818;15.964;2023-12-04T03:28:55;5.35;;;4.85;;
43996;SDS011;34318;45.818;15.964;2023-12-04T03:31:23;5.25;;;4.75;;
43996;SDS011;34318;45.818;15.964;2023-12-04T03:33:54;5.18;;;4.68;;
43996;SDS011;34318;45.818;15.964;2023-12-04T03:36:21;5.63;;;5.13;;
43996;SDS011;34318;45.818;15.964;2023-12-04T03:38:49;5.22;;;4.72;;
43996;SDS011;34318;45.818;15.964;2023-12-04T03:41:16;5.60;;;5.10;;
43996;SDS011;34318;45.818;15.964;2023-12-04T03:43:43;5.60;;;5.10;;
43996;SDS011;34318;45.818;15.964;2023-12-04T03:46:11;5.03;;;4.53;;
43996;SDS011;34318;45.818;15.964;2023-12-04T03:48:38;5.65;;;5.15;;
43996;SDS011;34318;45.818;15.964;2023-12-04T03:51:07;6.32;;;5.55;;
43996;SDS011;34318;45.818;15.964;2023-12-04T03:53:34;7.38;;;4.70;;
43996;SDS011;34318;45.818;15.964;2023-12-04T03:56:02;6.13;;;5.53;;
43996;SDS011;34318;45.818;15.964;2023-12-04T03:58:29;5.43;;;4.93;;
43996;SDS011;34318;45.818;15.964;2023-12-04T04:00:57;5.15;;;4.65;;
43996;SDS011;34318;45.818;15.964;2023-12-04T04:03:24;5.75;;;5.25;;
43996;SDS011;34318;45.818;15.964;2023-12-04T04:05:51;5.68;;;5.03;;
43996;SDS011;34318;45.818;15.964;2023-12-04T04:08:18;6.05;;;5.20;;
43996;SDS011;34318;45.818;15.964;2023-12-04T04:10:46;5.05;;;4.55;;
43996;SDS011;34318;45.818;15.964;2023-12-04T04:13:13;5.47;;;4.97;;
43996;SDS011;34318;45.818;15.964;2023-12-04T04:15:40;8.00;;;5.68;;
43996;SDS011;34318;45.818;15.964;2023-12-04T04:18:08;6.22;;;5.28;;
43996;SDS011;34318;45.818;15.964;2023-12-04T04:20:35;5.70;;;5.15;;
43996;SDS011;34318;45.818;15.964;2023-12-04T04:23:02;7.57;;;5.13;;
43996;SDS011;34318;45.818;15.964;2023-12-04T04:25:32;5.18;;;4.72;;
43996;SDS011;34318;45.818;15.964;2023-12-04T04:28:00;5.72;;;5.07;;
43996;SDS011;34318;45.818;15.964;2023-12-04T04:30:27;7.90;;;4.90;;
43996;SDS011;34318;45.818;15.964;2023-12-04T04:32:54;5.63;;;4.60;;
43996;SDS011;34318;45.818;15.964;2023-12-04T04:35:22;4.43;;;4.03;;
43996;SDS011;34318;45.818;15.964;2023-12-04T04:37:50;8.07;;;5.45;;
43996;SDS011;34318;45.818;15.964;2023-12-04T04:40:17;5.47;;;4.95;;
43996;SDS011;34318;45.818;15.964;2023-12-04T04:42:45;5.68;;;5.15;;
43996;SDS011;34318;45.818;15.964;2023-12-04T04:45:12;8.10;;;5.88;;
43996;SDS011;34318;45.818;15.964;2023-12-04T04:47:40;6.80;;;6.10;;
43996;SDS011;34318;45.818;15.964;2023-12-04T04:50:07;6.82;;;6.22;;
43996;SDS011;34318;45.818;15.964;2023-12-04T04:52:34;6.00;;;5.50;;
43996;SDS011;34318;45.818;15.964;2023-12-04T04:55:02;7.43;;;5.63;;
43996;SDS011;34318;45.818;15.964;2023-12-04T04:57:31;6.63;;;5.93;;
43996;SDS011;34318;45.818;15.964;2023-12-04T04:59:59;6.50;;;5.90;;
43996;SDS011;34318;45.818;15.964;2023-12-04T05:02:26;6.65;;;6.03;;
43996;SDS011;34318;45.818;15.964;2023-12-04T05:04:54;6.55;;;5.85;;
43996;SDS011;34318;45.818;15.964;2023-12-04T05:07:21;6.85;;;6.15;;
43996;SDS011;34318;45.818;15.964;2023-12-04T05:09:49;6.78;;;5.35;;
43996;SDS011;34318;45.818;15.964;2023-12-04T05:12:16;7.05;;;5.15;;
43996;SDS011;34318;45.818;15.964;2023-12-04T05:14:44;5.88;;;5.35;;
43996;SDS011;34318;45.818;15.964;2023-12-04T05:17:11;6.63;;;5.70;;
43996;SDS011;34318;45.818;15.964;2023-12-04T05:19:38;8.05;;;5.47;;
43996;SDS011;34318;45.818;15.964;2023-12-04T05:22:07;7.03;;;5.40;;
43996;SDS011;34318;45.818;15.964;2023-12-04T05:24:35;6.30;;;5.22;;
43996;SDS011;34318;45.818;15.964;2023-12-04T05:27:02;6.70;;;6.10;;
43996;SDS011;34318;45.818;15.964;2023-12-04T05:29:29;6.95;;;5.95;;
43996;SDS011;34318;45.818;15.964;2023-12-04T05:31:57;6.25;;;5.65;;
43996;SDS011;34318;45.818;15.964;2023-12-04T05:34:24;5.80;;;5.30;;
43996;SDS011;34318;45.818;15.964;2023-12-04T05:36:51;6.00;;;5.50;;
43996;SDS011;34318;45.818;15.964;2023-12-04T05:39:19;7.07;;;5.72;;
43996;SDS011;34318;45.818;15.964;2023-12-04T05:41:46;6.10;;;5.50;;
43996;SDS011;34318;45.818;15.964;2023-12-04T05:44:14;6.28;;;5.68;;
43996;SDS011;34318;45.818;15.964;2023-12-04T05:46:41;6.25;;;5.68;;
43996;SDS011;34318;45.818;15.964;2023-12-04T05:49:08;6.32;;;5.70;;
43996;SDS011;34318;45.818;15.964;2023-12-04T05:51:36;6.15;;;5.65;;
43996;SDS011;34318;45.818;15.964;2023-12-04T05:54:04;6.93;;;6.20;;
43996;SDS011;34318;45.818;15.964;2023-12-04T05:56:31;8.63;;;6.35;;
43996;SDS011;34318;45.818;15.964;2023-12-04T05:58:58;8.15;;;6.20;;
43996;SDS011;34318;45.818;15.964;2023-12-04T06:01:27;7.10;;;6.35;;
43996;SDS011;34318;45.818;15.964;2023-12-04T06:03:54;7.40;;;6.50;;
43996;SDS011;34318;45.818;15.964;2023-12-04T06:06:22;8.93;;;6.70;;
43996;SDS011;34318;45.818;15.964;2023-12-04T06:08:49;7.35;;;6.47;;
43996;SDS011;34318;45.818;15.964;2023-12-04T06:11:16;12.07;;;7.03;;
43996;SDS011;34318;45.818;15.964;2023-12-04T06:13:43;9.93;;;6.53;;
43996;SDS011;34318;45.818;15.964;2023-12-04T06:16:11;9.32;;;6.43;;
43996;SDS011;34318;45.818;15.964;2023-12-04T06:18:38;7.63;;;6.50;;
43996;SDS011;34318;45.818;15.964;2023-12-04T06:21:06;7.35;;;6.55;;
43996;SDS011;34318;45.818;15.964;2023-12-04T06:23:33;7.78;;;6.97;;
43996;SDS011;34318;45.818;15.964;2023-12-04T06:26:01;8.57;;;7.68;;
43996;SDS011;34318;45.818;15.964;2023-12-04T06:28:28;8.85;;;7.95;;
43996;SDS011;34318;45.818;15.964;2023-12-04T06:30:56;11.93;;;10.52;;
43996;SDS011;34318;45.818;15.964;2023-12-04T06:33:23;12.05;;;10.82;;
43996;SDS011;34318;45.818;15.964;2023-12-04T06:35:51;11.60;;;10.18;;
43996;SDS011;34318;45.818;15.964;2023-12-04T06:38:18;12.05;;;10.68;;
43996;SDS011;34318;45.818;15.964;2023-12-04T06:40:46;11.65;;;10.48;;
43996;SDS011;34318;45.818;15.964;2023-12-04T06:43:13;10.73;;;9.73;;
43996;SDS011;34318;45.818;15.964;2023-12-04T06:45:45;11.95;;;10.65;;
43996;SDS011;34318;45.818;15.964;2023-12-04T06:48:13;11.43;;;10.32;;
43996;SDS011;34318;45.818;15.964;2023-12-04T06:50:40;10.70;;;9.60;;
43996;SDS011;34318;45.818;15.964;2023-12-04T06:53:07;11.10;;;9.98;;
43996;SDS011;34318;45.818;15.964;2023-12-04T06:55:35;10.98;;;9.88;;
43996;SDS011;34318;45.818;15.964;2023-12-04T06:58:02;11.52;;;9.90;;
43996;SDS011;34318;45.818;15.964;2023-12-04T07:00:29;11.23;;;10.23;;
43996;SDS011;34318;45.818;15.964;2023-12-04T07:02:57;10.65;;;9.65;;
43996;SDS011;34318;45.818;15.964;2023-12-04T07:05:24;11.27;;;10.18;;
43996;SDS011;34318;45.818;15.964;2023-12-04T07:07:51;15.15;;;10.45;;
43996;SDS011;34318;45.818;15.964;2023-12-04T07:10:19;14.35;;;9.90;;
43996;SDS011;34318;45.818;15.964;2023-12-04T07:12:46;11.73;;;10.63;;
43996;SDS011;34318;45.818;15.964;2023-12-04T07:15:14;11.82;;;10.25;;
43996;SDS011;34318;45.818;15.964;2023-12-04T07:17:41;11.60;;;10.32;;
43996;SDS011;34318;45.818;15.964;2023-12-04T07:20:08;13.05;;;10.15;;
43996;SDS011;34318;45.818;15.964;2023-12-04T07:22:38;13.95;;;10.15;;
43996;SDS011;34318;45.818;15.964;2023-12-04T07:25:06;10.57;;;9.45;;
43996;SDS011;34318;45.818;15.964;2023-12-04T07:27:34;10.70;;;9.65;;
43996;SDS011;34318;45.818;15.964;2023-12-04T07:30:02;13.98;;;9.77;;
43996;SDS011;34318;45.818;15.964;2023-12-04T07:32:29;11.98;;;10.05;;
43996;SDS011;34318;45.818;15.964;2023-12-04T07:34:59;13.18;;;10.60;;
43996;SDS011;34318;45.818;15.964;2023-12-04T07:37:26;11.45;;;10.30;;
43996;SDS011;34318;45.818;15.964;2023-12-04T07:39:56;11.57;;;10.38;;
43996;SDS011;34318;45.818;15.964;2023-12-04T07:42:23;17.10;;;10.85;;
43996;SDS011;34318;45.818;15.964;2023-12-04T07:44:51;11.80;;;10.38;;
43996;SDS011;34318;45.818;15.964;2023-12-04T07:47:18;16.15;;;11.27;;
43996;SDS011;34318;45.818;15.964;2023-12-04T07:49:45;11.57;;;10.25;;
43996;SDS011;34318;45.818;15.964;2023-12-04T07:52:13;11.05;;;9.85;;
43996;SDS011;34318;45.818;15.964;2023-12-04T07:54:40;11.48;;;10.48;;
43996;SDS011;34318;45.818;15.964;2023-12-04T07:57:08;11.95;;;10.75;;
43996;SDS011;34318;45.818;15.964;2023-12-04T07:59:35;12.63;;;10.73;;
43996;SDS011;34318;45.818;15.964;2023-12-04T08:02:02;12.23;;;10.93;;
43996;SDS011;34318;45.818;15.964;2023-12-04T08:04:30;14.30;;;11.05;;
43996;SDS011;34318;45.818;15.964;2023-12-04T08:06:58;14.80;;;11.10;;
43996;SDS011;34318;45.818;15.964;2023-12-04T08:09:25;14.40;;;10.90;;
43996;SDS011;34318;45.818;15.964;2023-12-04T08:11:52;13.55;;;10.65;;
43996;SDS011;34318;45.818;15.964;2023-12-04T08:14:24;11.93;;;10.73;;
43996;SDS011;34318;45.818;15.964;2023-12-04T08:16:54;14.82;;;12.80;;
43996;SDS011;34318;45.818;15.964;2023-12-04T08:19:21;15.88;;;11.77;;
43996;SDS011;34318;45.818;15.964;2023-12-04T08:21:50;13.80;;;12.20;;
43996;SDS011;34318;45.818;15.964;2023-12-04T08:24:17;14.57;;;12.65;;
43996;SDS011;34318;45.818;15.964;2023-12-04T08:26:45;14.02;;;12.63;;
43996;SDS011;34318;45.818;15.964;2023-12-04T08:29:12;19.60;;;12.73;;
43996;SDS011;34318;45.818;15.964;2023-12-04T08:31:39;13.80;;;12.38;;
43996;SDS011;34318;45.818;15.964;2023-12-04T08:34:07;13.68;;;12.25;;
43996;SDS011;34318;45.818;15.964;2023-12-04T08:36:34;14.82;;;13.30;;
43996;SDS011;34318;45.818;15.964;2023-12-04T08:39:12;19.30;;;13.52;;
43996;SDS011;34318;45.818;15.964;2023-12-04T08:41:39;15.95;;;14.20;;
43996;SDS011;34318;45.818;15.964;2023-12-04T08:44:16;19.42;;;14.50;;
43996;SDS011;34318;45.818;15.964;2023-12-04T08:46:44;16.00;;;14.32;;
43996;SDS011;34318;45.818;15.964;2023-12-04T08:49:11;15.77;;;14.13;;
43996;SDS011;34318;45.818;15.964;2023-12-04T08:51:39;16.23;;;13.95;;
43996;SDS011;34318;45.818;15.964;2023-12-04T08:54:06;17.52;;;14.55;;
43996;SDS011;34318;45.818;15.964;2023-12-04T08:56:37;17.83;;;14.65;;
43996;SDS011;34318;45.818;15.964;2023-12-04T08:59:04;15.73;;;14.20;;
43996;SDS011;34318;45.818;15.964;2023-12-04T09:01:32;16.90;;;14.43;;
43996;SDS011;34318;45.818;15.964;2023-12-04T09:04:00;20.67;;;15.70;;
43996;SDS011;34318;45.818;15.964;2023-12-04T09:06:27;16.45;;;14.75;;
43996;SDS011;34318;45.818;15.964;2023-12-04T09:08:58;17.05;;;13.98;;
43996;SDS011;34318;45.818;15.964;2023-12-04T09:11:34;16.10;;;14.18;;
43996;SDS011;34318;45.818;15.964;2023-12-04T09:14:01;17.02;;;14.60;;
43996;SDS011;34318;45.818;15.964;2023-12-04T09:16:29;20.25;;;16.13;;
43996;SDS011;34318;45.818;15.964;2023-12-04T09:18:57;17.52;;;15.32;;
43996;SDS011;34318;45.818;15.964;2023-12-04T09:21:24;21.48;;;15.98;;
43996;SDS011;34318;45.818;15.964;2023-12-04T09:23:53;17.38;;;15.48;;
43996;SDS011;34318;45.818;15.964;2023-12-04T09:26:20;17.33;;;15.52;;
43996;SDS011;34318;45.818;15.964;2023-12-04T09:28:48;20.55;;;15.45;;
43996;SDS011;34318;45.818;15.964;2023-12-04T09:31:16;21.30;;;15.05;;
43996;SDS011;34318;45.818;15.964;2023-12-04T09:33:43;18.63;;;15.85;;
43996;SDS011;34318;45.818;15.964;2023-12-04T09:36:10;23.08;;;15.95;;
43996;SDS011;34318;45.818;15.964;2023-12-04T09:38:38;20.15;;;16.23;;
43996;SDS011;34318;45.818;15.964;2023-12-04T09:41:05;20.05;;;15.25;;
43996;SDS011;34318;45.818;15.964;2023-12-04T09:43:33;21.42;;;16.25;;
43996;SDS011;34318;45.818;15.964;2023-12-04T09:46:00;18.58;;;15.63;;
43996;SDS011;34318;45.818;15.964;2023-12-04T09:48:28;20.08;;;17.45;;
43996;SDS011;34318;45.818;15.964;2023-12-04T09:50:57;25.88;;;17.02;;
43996;SDS011;34318;45.818;15.964;2023-12-04T09:53:26;25.02;;;16.63;;
43996;SDS011;34318;45.818;15.964;2023-12-04T09:55:54;19.38;;;16.20;;
43996;SDS011;34318;45.818;15.964;2023-12-04T09:58:25;24.73;;;17.67;;
43996;SDS011;34318;45.818;15.964;2023-12-04T10:00:59;19.40;;;17.35;;
43996;SDS011;34318;45.818;15.964;2023-12-04T10:03:27;23.40;;;18.88;;
43996;SDS011;34318;45.818;15.964;2023-12-04T10:05:56;25.17;;;17.35;;
43996;SDS011;34318;45.818;15.964;2023-12-04T10:08:24;21.17;;;18.20;;
43996;SDS011;34318;45.818;15.964;2023-12-04T10:10:51;22.88;;;19.10;;
43996;SDS011;34318;45.818;15.964;2023-12-04T10:13:18;20.85;;;18.65;;
43996;SDS011;34318;45.818;15.964;2023-12-04T10:16:06;21.63;;;18.17;;
43996;SDS011;34318;45.818;15.964;2023-12-04T10:18:33;23.52;;;18.23;;
43996;SDS011;34318;45.818;15.964;2023-12-04T10:21:01;25.75;;;18.05;;
43996;SDS011;34318;45.818;15.964;2023-12-04T10:23:42;29.00;;;17.92;;
43996;SDS011;34318;45.818;15.964;2023-12-04T10:26:14;24.70;;;18.10;;
43996;SDS011;34318;45.818;15.964;2023-12-04T10:28:58;20.40;;;17.95;;
43996;SDS011;34318;45.818;15.964;2023-12-04T10:31:26;23.02;;;18.95;;
43996;SDS011;34318;45.818;15.964;2023-12-04T10:33:53;22.52;;;19.15;;
43996;SDS011;34318;45.818;15.964;2023-12-04T10:36:21;27.05;;;18.63;;
43996;SDS011;34318;45.818;15.964;2023-12-04T10:38:57;23.08;;;19.15;;
43996;SDS011;34318;45.818;15.964;2023-12-04T10:41:26;22.13;;;19.80;;
43996;SDS011;34318;45.818;15.964;2023-12-04T10:43:53;24.95;;;21.20;;
43996;SDS011;34318;45.818;15.964;2023-12-04T10:46:35;24.55;;;21.85;;
43996;SDS011;34318;45.818;15.964;2023-12-04T10:49:04;27.10;;;22.52;;
43996;SDS011;34318;45.818;15.964;2023-12-04T10:51:32;24.27;;;21.05;;
43996;SDS011;34318;45.818;15.964;2023-12-04T10:54:01;27.42;;;23.27;;
43996;SDS011;34318;45.818;15.964;2023-12-04T10:56:41;27.58;;;21.95;;
43996;SDS011;34318;45.818;15.964;2023-12-04T10:59:11;27.48;;;22.10;;
43996;SDS011;34318;45.818;15.964;2023-12-04T11:01:39;28.98;;;22.42;;
43996;SDS011;34318;45.818;15.964;2023-12-04T11:04:08;29.17;;;23.42;;
43996;SDS011;34318;45.818;15.964;2023-12-04T11:06:39;30.77;;;26.17;;
43996;SDS011;34318;45.818;15.964;2023-12-04T11:09:06;43.60;;;30.42;;
43996;SDS011;34318;45.818;15.964;2023-12-04T11:11:35;46.80;;;34.97;;
43996;SDS011;34318;45.818;15.964;2023-12-04T11:14:04;56.72;;;39.03;;
43996;SDS011;34318;45.818;15.964;2023-12-04T11:16:38;58.25;;;40.55;;
43996;SDS011;34318;45.818;15.964;2023-12-04T11:19:10;49.57;;;31.80;;
43996;SDS011;34318;45.818;15.964;2023-12-04T11:21:44;47.40;;;33.72;;
43996;SDS011;34318;45.818;15.964;2023-12-04T11:24:12;48.22;;;40.33;;
43996;SDS011;34318;45.818;15.964;2023-12-04T11:26:40;56.60;;;39.67;;
43996;SDS011;34318;45.818;15.964;2023-12-04T11:29:08;54.15;;;38.88;;
43996;SDS011;34318;45.818;15.964;2023-12-04T11:31:36;49.67;;;37.53;;
43996;SDS011;34318;45.818;15.964;2023-12-04T11:34:04;42.47;;;35.03;;
43996;SDS011;34318;45.818;15.964;2023-12-04T11:36:31;46.28;;;35.83;;
43996;SDS011;34318;45.818;15.964;2023-12-04T11:39:01;42.80;;;34.58;;
43996;SDS011;34318;45.818;15.964;2023-12-04T11:41:29;45.13;;;35.72;;
43996;SDS011;34318;45.818;15.964;2023-12-04T11:43:57;39.35;;;32.22;;
43996;SDS011;34318;45.818;15.964;2023-12-04T11:46:25;38.33;;;32.75;;
43996;SDS011;34318;45.818;15.964;2023-12-04T11:48:56;38.88;;;30.85;;
43996;SDS011;34318;45.818;15.964;2023-12-04T11:54:09;34.03;;;30.40;;
43996;SDS011;34318;45.818;15.964;2023-12-04T11:56:37;36.90;;;28.63;;
43996;SDS011;34318;45.818;15.964;2023-12-04T11:59:06;34.47;;;28.48;;
43996;SDS011;34318;45.818;15.964;2023-12-04T12:01:35;30.25;;;26.02;;
43996;SDS011;34318;45.818;15.964;2023-12-04T12:04:06;30.75;;;27.05;;
43996;SDS011;34318;45.818;15.964;2023-12-04T12:06:33;31.80;;;28.50;;
43996;SDS011;34318;45.818;15.964;2023-12-04T12:09:01;29.65;;;25.10;;
43996;SDS011;34318;45.818;15.964;2023-12-04T12:11:29;28.50;;;25.13;;
43996;SDS011;34318;45.818;15.964;2023-12-04T12:13:56;30.92;;;25.40;;
43996;SDS011;34318;45.818;15.964;2023-12-04T12:16:24;29.42;;;24.20;;
43996;SDS011;34318;45.818;15.964;2023-12-04T12:18:53;27.48;;;23.88;;
43996;SDS011;34318;45.818;15.964;2023-12-04T12:21:21;28.77;;;23.98;;
43996;SDS011;34318;45.818;15.964;2023-12-04T12:23:49;28.85;;;25.48;;
43996;SDS011;34318;45.818;15.964;2023-12-04T12:26:16;31.38;;;27.20;;
43996;SDS011;34318;45.818;15.964;2023-12-04T12:28:43;33.90;;;28.48;;
43996;SDS011;34318;45.818;15.964;2023-12-04T12:31:12;38.15;;;32.10;;
43996;SDS011;34318;45.818;15.964;2023-12-04T12:33:39;37.65;;;31.30;;
43996;SDS011;34318;45.818;15.964;2023-12-04T12:36:07;40.30;;;32.50;;
43996;SDS011;34318;45.818;15.964;2023-12-04T12:38:35;37.08;;;33.22;;
43996;SDS011;34318;45.818;15.964;2023-12-04T12:41:06;37.08;;;33.10;;
43996;SDS011;34318;45.818;15.964;2023-12-04T12:43:38;38.00;;;34.23;;
43996;SDS011;34318;45.818;15.964;2023-12-04T12:46:06;41.78;;;36.55;;
43996;SDS011;34318;45.818;15.964;2023-12-04T12:48:33;38.85;;;34.78;;
43996;SDS011;34318;45.818;15.964;2023-12-04T12:51:04;44.78;;;36.25;;
43996;SDS011;34318;45.818;15.964;2023-12-04T12:53:32;41.10;;;36.60;;
43996;SDS011;34318;45.818;15.964;2023-12-04T12:56:00;41.90;;;37.38;;
43996;SDS011;34318;45.818;15.964;2023-12-04T12:58:28;44.25;;;38.75;;
43996;SDS011;34318;45.818;15.964;2023-12-04T13:00:55;43.65;;;37.88;;
43996;SDS011;34318;45.818;15.964;2023-12-04T13:03:22;40.65;;;36.25;;
43996;SDS011;34318;45.818;15.964;2023-12-04T13:05:50;40.95;;;36.10;;
43996;SDS011;34318;45.818;15.964;2023-12-04T13:08:18;41.28;;;36.85;;
43996;SDS011;34318;45.818;15.964;2023-12-04T13:10:45;40.60;;;35.40;;
43996;SDS011;34318;45.818;15.964;2023-12-04T13:13:13;40.10;;;35.58;;
43996;SDS011;34318;45.818;15.964;2023-12-04T13:15:41;40.33;;;35.28;;
43996;SDS011;34318;45.818;15.964;2023-12-04T13:18:09;39.22;;;35.00;;
43996;SDS011;34318;45.818;15.964;2023-12-04T13:20:37;38.60;;;33.67;;
43996;SDS011;34318;45.818;15.964;2023-12-04T13:23:05;39.65;;;34.80;;
43996;SDS011;34318;45.818;15.964;2023-12-04T13:25:32;37.60;;;32.90;;
43996;SDS011;34318;45.818;15.964;2023-12-04T13:28:00;40.28;;;34.50;;
43996;SDS011;34318;45.818;15.964;2023-12-04T13:30:27;43.65;;;36.03;;
43996;SDS011;34318;45.818;15.964;2023-12-04T13:32:55;38.20;;;34.30;;
43996;SDS011;34318;45.818;15.964;2023-12-04T13:35:22;36.88;;;32.63;;
43996;SDS011;34318;45.818;15.964;2023-12-04T13:37:50;38.65;;;34.40;;
43996;SDS011;34318;45.818;15.964;2023-12-04T13:40:22;36.55;;;32.80;;
43996;SDS011;34318;45.818;15.964;2023-12-04T13:42:53;40.83;;;33.40;;
43996;SDS011;34318;45.818;15.964;2023-12-04T13:48:06;34.80;;;31.05;;
43996;SDS011;34318;45.818;15.964;2023-12-04T13:50:34;36.78;;;32.88;;
43996;SDS011;34318;45.818;15.964;2023-12-04T13:53:02;36.63;;;32.72;;
43996;SDS011;34318;45.818;15.964;2023-12-04T13:55:31;35.13;;;31.48;;
43996;SDS011;34318;45.818;15.964;2023-12-04T13:58:37;34.30;;;30.63;;
43996;SDS011;34318;45.818;15.964;2023-12-04T14:01:06;32.70;;;29.42;;
43996;SDS011;34318;45.818;15.964;2023-12-04T14:03:41;33.80;;;30.15;;
43996;SDS011;34318;45.818;15.964;2023-12-04T14:06:10;32.17;;;28.63;;
43996;SDS011;34318;45.818;15.964;2023-12-04T14:08:38;31.55;;;28.02;;
43996;SDS011;34318;45.818;15.964;2023-12-04T14:11:05;33.58;;;30.08;;
43996;SDS011;34318;45.818;15.964;2023-12-04T14:13:33;31.63;;;28.52;;
43996;SDS011;34318;45.818;15.964;2023-12-04T14:16:00;30.90;;;27.52;;
43996;SDS011;34318;45.818;15.964;2023-12-04T14:18:29;32.03;;;28.77;;
43996;SDS011;34318;45.818;15.964;2023-12-04T14:20:57;30.75;;;27.55;;
43996;SDS011;34318;45.818;15.964;2023-12-04T14:23:24;30.35;;;27.05;;
43996;SDS011;34318;45.818;15.964;2023-12-04T14:25:51;29.75;;;26.45;;
43996;SDS011;34318;45.818;15.964;2023-12-04T14:28:19;32.33;;;26.27;;
43996;SDS011;34318;45.818;15.964;2023-12-04T14:30:54;28.90;;;25.88;;
43996;SDS011;34318;45.818;15.964;2023-12-04T14:33:22;28.30;;;25.35;;